Time;durP1;ratioP1;P1;durP2;ratioP2;P2;SDS_P1;SDS_P2;PMS_P1;PMS_P2;Temp;Humidity;BMP_temperature;BMP_pressure;BME280_temperature;BME280_humidity;BME280_pressure;Samples;Min_cycle;Max_cycle;Signal;HPM_P1;HPM_P2
2024/01/11 00:04:07;;;;;;;10.88;6.72;;;;;;;;;;10329560;28;20030;-71
2024/01/11 00:09:08;;;;;;;9.50;6.35;;;;;;;;;;10322691;28;20026;-70
2024/01/11 00:14:09;;;;;;;9.95;6.63;;;;;;;;;;10327422;28;20057;-70
2024/01/11 00:19:09;;;;;;;9.88;6.30;;;;;;;;;;10327749;28;20034;-70
2024/01/11 00:24:10;;;;;;;11.60;5.95;;;;;;;;;;10322076;28;20030;-67
2024/01/11 00:29:10;;;;;;;10.05;6.40;;;;;;;;;;10321131;28;20124;-67
2024/01/11 00:34:11;;;;;;;12.98;6.95;;;;;;;;;;10300429;28;20065;-71
2024/01/11 00:39:12;;;;;;;10.68;6.20;;;;;;;;;;10307342;28;20080;-68
2024/01/11 00:44:12;;;;;;;9.35;6.30;;;;;;;;;;10327783;28;20536;-67
2024/01/11 00:49:13;;;;;;;8.25;6.38;;;;;;;;;;10326256;28;20478;-67
2024/01/11 00:54:14;;;;;;;9.48;6.30;;;;;;;;;;10312414;28;20551;-66
2024/01/11 00:59:14;;;;;;;8.25;5.80;;;;;;;;;;10321223;28;20401;-64
2024/01/11 01:04:15;;;;;;;12.15;5.93;;;;;;;;;;10321601;28;20035;-67
2024/01/11 01:09:16;;;;;;;10.07;6.18;;;;;;;;;;10340518;28;20023;-68
2024/01/11 01:14:16;;;;;;;9.90;6.05;;;;;;;;;;10323861;28;20026;-68
2024/01/11 01:19:17;;;;;;;7.72;5.85;;;;;;;;;;10325817;28;20023;-65
2024/01/11 01:24:17;;;;;;;8.88;5.75;;;;;;;;;;10313719;28;20029;-71
2024/01/11 01:29:18;;;;;;;9.60;6.47;;;;;;;;;;10325709;28;20026;-68
2024/01/11 01:34:19;;;;;;;7.28;5.40;;;;;;;;;;10324474;28;20273;-68
2024/01/11 01:39:19;;;;;;;9.55;6.07;;;;;;;;;;10311259;28;20046;-69
2024/01/11 01:44:20;;;;;;;9.30;5.88;;;;;;;;;;10324305;28;20041;-69
2024/01/11 01:49:22;;;;;;;9.68;5.88;;;;;;;;;;10325430;28;20705;-70
2024/01/11 01:54:23;;;;;;;8.13;5.97;;;;;;;;;;10324366;28;20212;-70
2024/01/11 01:59:25;;;;;;;8.23;5.57;;;;;;;;;;10324596;28;20027;-69
2024/01/11 02:04:27;;;;;;;7.72;6.07;;;;;;;;;;10321646;28;20319;-69
2024/01/11 02:09:28;;;;;;;9.05;6.07;;;;;;;;;;10301775;28;20497;-67
2024/01/11 02:14:29;;;;;;;9.55;6.00;;;;;;;;;;10316409;28;20027;-69
2024/01/11 02:19:30;;;;;;;7.35;5.57;;;;;;;;;;10311229;28;20026;-69
2024/01/11 02:24:30;;;;;;;8.38;5.97;;;;;;;;;;10305045;28;20023;-69
2024/01/11 02:29:31;;;;;;;7.07;5.70;;;;;;;;;;10316366;28;20391;-69
2024/01/11 02:34:34;;;;;;;9.63;5.47;;;;;;;;;;10297307;28;20029;-70
2024/01/11 02:39:35;;;;;;;6.38;5.75;;;;;;;;;;10322123;28;20289;-69
2024/01/11 02:44:36;;;;;;;7.40;5.30;;;;;;;;;;10321861;28;20269;-69
2024/01/11 02:49:37;;;;;;;8.10;5.63;;;;;;;;;;10310231;28;20101;-70
2024/01/11 02:54:37;;;;;;;6.03;5.10;;;;;;;;;;10321865;28;20050;-72
2024/01/11 02:59:40;;;;;;;6.00;5.32;;;;;;;;;;10321713;28;20030;-70
2024/01/11 03:04:40;;;;;;;8.38;5.97;;;;;;;;;;10321160;28;20038;-71
2024/01/11 03:09:41;;;;;;;9.23;5.57;;;;;;;;;;10321206;28;20041;-64
2024/01/11 03:14:42;;;;;;;7.38;5.68;;;;;;;;;;10322994;28;20034;-71
2024/01/11 03:19:42;;;;;;;8.20;5.57;;;;;;;;;;10320431;28;20030;-69
2024/01/11 03:24:43;;;;;;;6.35;5.38;;;;;;;;;;10308556;28;20030;-68
2024/01/11 03:29:43;;;;;;;7.80;5.60;;;;;;;;;;10327374;28;20038;-68
2024/01/11 03:34:44;;;;;;;8.40;5.18;;;;;;;;;;10328948;28;20034;-70
2024/01/11 03:39:44;;;;;;;8.70;5.47;;;;;;;;;;10329496;28;20051;-70
2024/01/11 03:44:45;;;;;;;6.82;5.43;;;;;;;;;;10307164;28;20018;-70
2024/01/11 03:49:46;;;;;;;6.43;5.38;;;;;;;;;;10328930;28;20065;-71
2024/01/11 03:54:46;;;;;;;7.97;5.63;;;;;;;;;;10317429;28;20029;-71
2024/01/11 03:59:47;;;;;;;7.82;5.15;;;;;;;;;;10310547;28;20053;-72
2024/01/11 04:04:47;;;;;;;8.15;5.38;;;;;;;;;;10312914;28;20034;-70
2024/01/11 04:09:48;;;;;;;6.30;5.35;;;;;;;;;;10328123;28;20552;-68
2024/01/11 04:14:48;;;;;;;6.00;4.95;;;;;;;;;;10328800;28;20383;-65
2024/01/11 04:19:49;;;;;;;7.15;4.85;;;;;;;;;;10315877;28;20416;-67
2024/01/11 04:24:49;;;;;;;8.02;5.40;;;;;;;;;;10323861;28;20026;-67
2024/01/11 04:29:50;;;;;;;6.93;5.03;;;;;;;;;;10325021;28;20422;-67
2024/01/11 04:34:51;;;;;;;7.47;5.15;;;;;;;;;;10328050;28;20605;-67
2024/01/11 04:39:51;;;;;;;7.63;5.10;;;;;;;;;;10318607;28;20359;-68
2024/01/11 04:44:52;;;;;;;8.20;5.13;;;;;;;;;;10327574;28;20034;-66
2024/01/11 04:49:52;;;;;;;6.72;5.05;;;;;;;;;;10312925;28;20025;-67
2024/01/11 04:54:53;;;;;;;6.50;5.20;;;;;;;;;;10319794;28;20481;-67
2024/01/11 04:59:53;;;;;;;4.90;4.38;;;;;;;;;;10311571;28;20370;-67
2024/01/11 05:04:54;;;;;;;6.32;5.07;;;;;;;;;;10325664;28;20031;-70
2024/01/11 05:09:54;;;;;;;7.35;4.95;;;;;;;;;;10326859;28;20038;-69
2024/01/11 05:14:55;;;;;;;5.80;5.07;;;;;;;;;;10326442;28;20090;-66
2024/01/11 05:19:56;;;;;;;6.97;5.22;;;;;;;;;;10325861;28;20261;-69
2024/01/11 05:24:56;;;;;;;6.38;4.97;;;;;;;;;;10325974;28;20382;-67
2024/01/11 05:29:57;;;;;;;7.13;5.28;;;;;;;;;;10325623;28;20035;-68
2024/01/11 05:34:57;;;;;;;8.48;4.88;;;;;;;;;;10325574;28;20049;-69
2024/01/11 05:39:58;;;;;;;7.88;5.13;;;;;;;;;;10324640;28;20096;-69
2024/01/11 05:44:59;;;;;;;8.57;5.25;;;;;;;;;;10325151;28;20544;-70
2024/01/11 05:49:59;;;;;;;6.30;4.78;;;;;;;;;;10324125;28;20379;-68
2024/01/11 05:55:00;;;;;;;6.28;4.55;;;;;;;;;;10320326;28;20022;-67
2024/01/11 06:00:00;;;;;;;5.47;4.50;;;;;;;;;;10324018;28;20097;-69
2024/01/11 06:05:01;;;;;;;7.43;5.38;;;;;;;;;;10324202;28;20030;-69
2024/01/11 06:10:02;;;;;;;5.57;4.72;;;;;;;;;;10324144;28;20470;-65
2024/01/11 06:15:04;;;;;;;5.47;4.55;;;;;;;;;;10314711;28;20034;-68
2024/01/11 06:20:05;;;;;;;5.63;5.05;;;;;;;;;;10324054;28;20038;-67
2024/01/11 06:25:06;;;;;;;6.63;4.95;;;;;;;;;;10321793;28;20510;-73
2024/01/11 06:30:07;;;;;;;6.68;4.50;;;;;;;;;;10316007;28;20489;-72
2024/01/11 06:35:08;;;;;;;6.70;4.60;;;;;;;;;;10322245;28;20065;-70
2024/01/11 06:40:09;;;;;;;7.82;4.88;;;;;;;;;;10325072;28;20474;-71
2024/01/11 06:45:10;;;;;;;6.97;5.28;;;;;;;;;;10317153;28;20026;-69
2024/01/11 06:50:13;;;;;;;9.35;6.22;;;;;;;;;;10319917;28;20029;-69
2024/01/11 06:55:13;;;;;;;8.05;5.80;;;;;;;;;;10292769;28;20057;-70
2024/01/11 07:00:14;;;;;;;11.07;6.35;;;;;;;;;;10302498;28;20044;-70
2024/01/11 07:05:15;;;;;;;12.20;6.55;;;;;;;;;;10283126;28;20041;-67
2024/01/11 07:10:15;;;;;;;12.32;7.45;;;;;;;;;;10288530;28;20035;-72
2024/01/11 07:15:17;;;;;;;21.95;8.30;;;;;;;;;;10265615;28;20146;-66
2024/01/11 07:20:18;;;;;;;22.38;8.77;;;;;;;;;;10249602;28;20034;-67
2024/01/11 07:25:19;;;;;;;16.65;9.23;;;;;;;;;;10249931;28;20033;-67
2024/01/11 07:30:19;;;;;;;19.17;9.13;;;;;;;;;;10238016;28;20547;-68
2024/01/11 07:35:21;;;;;;;21.55;8.68;;;;;;;;;;10243038;28;20546;-67
2024/01/11 07:40:21;;;;;;;22.35;9.68;;;;;;;;;;10240891;28;20029;-67
2024/01/11 07:45:22;;;;;;;23.02;9.90;;;;;;;;;;10263713;28;20030;-68
2024/01/11 07:50:23;;;;;;;32.42;9.45;;;;;;;;;;10307761;28;20980;-68
2024/01/11 07:55:23;;;;;;;16.13;9.70;;;;;;;;;;10319517;28;20497;-67
2024/01/11 08:00:24;;;;;;;28.55;9.88;;;;;;;;;;10323334;28;20387;-67
2024/01/11 08:05:25;;;;;;;15.98;9.55;;;;;;;;;;10296701;28;20022;-67
2024/01/11 08:10:26;;;;;;;22.75;9.93;;;;;;;;;;10308075;28;20089;-68
2024/01/11 08:15:26;;;;;;;20.33;9.00;;;;;;;;;;10325029;28;20018;-67
2024/01/11 08:20:27;;;;;;;20.58;8.93;;;;;;;;;;10328073;28;20030;-67
2024/01/11 08:25:28;;;;;;;21.67;9.65;;;;;;;;;;10316848;28;20039;-67
2024/01/11 08:30:29;;;;;;;19.60;9.13;;;;;;;;;;10327248;28;20038;-67
2024/01/11 08:35:31;;;;;;;18.90;9.20;;;;;;;;;;10325224;28;20061;-67
2024/01/11 08:40:33;;;;;;;21.05;9.40;;;;;;;;;;10326989;28;20123;-68
2024/01/11 08:45:33;;;;;;;18.23;8.88;;;;;;;;;;10313831;28;20029;-68
2024/01/11 08:50:34;;;;;;;19.92;8.70;;;;;;;;;;10326261;28;20022;-67
2024/01/11 08:55:34;;;;;;;14.38;8.25;;;;;;;;;;10321278;28;20038;-67
2024/01/11 09:00:35;;;;;;;23.00;9.45;;;;;;;;;;10317563;28;20091;-67
2024/01/11 09:05:36;;;;;;;14.75;8.18;;;;;;;;;;10327376;28;20061;-68
2024/01/11 09:10:36;;;;;;;23.83;8.65;;;;;;;;;;10318787;28;20022;-67
2024/01/11 09:15:37;;;;;;;16.58;8.45;;;;;;;;;;10319329;28;20030;-68
2024/01/11 09:20:38;;;;;;;13.30;8.95;;;;;;;;;;10326000;28;20085;-68
2024/01/11 09:25:38;;;;;;;13.77;9.07;;;;;;;;;;10325505;28;20030;-67
2024/01/11 09:30:39;;;;;;;15.57;9.20;;;;;;;;;;10324682;28;20045;-68
2024/01/11 09:35:39;;;;;;;22.23;9.32;;;;;;;;;;10312494;28;20051;-68
2024/01/11 09:40:40;;;;;;;18.50;9.18;;;;;;;;;;10299568;28;20022;-68
2024/01/11 09:45:41;;;;;;;15.95;8.88;;;;;;;;;;10312172;28;20405;-68
2024/01/11 09:50:41;;;;;;;13.40;8.48;;;;;;;;;;10324942;28;20437;-68
2024/01/11 09:55:42;;;;;;;11.60;8.10;;;;;;;;;;10311072;28;20026;-68
2024/01/11 10:00:43;;;;;;;15.63;8.90;;;;;;;;;;10306074;28;20031;-68
2024/01/11 10:05:44;;;;;;;12.70;8.80;;;;;;;;;;10314628;28;20081;-68
2024/01/11 10:10:45;;;;;;;15.77;8.68;;;;;;;;;;10307515;28;20050;-68
2024/01/11 10:15:46;;;;;;;14.88;9.40;;;;;;;;;;10311362;28;20041;-68
2024/01/11 10:20:48;;;;;;;11.18;8.40;;;;;;;;;;10323416;28;20033;-68
2024/01/11 10:25:49;;;;;;;16.52;9.07;;;;;;;;;;10323998;28;20269;-68
2024/01/11 10:30:54;;;;;;;18.33;9.63;;;;;;;;;;10302455;28;20238;-68
2024/01/11 10:35:55;;;;;;;15.18;9.20;;;;;;;;;;10302002;28;20136;-68
2024/01/11 10:40:58;;;;;;;14.30;8.98;;;;;;;;;;10309443;28;20165;-67
2024/01/11 10:46:04;;;;;;;13.68;9.00;;;;;;;;;;10324585;28;20085;-68
2024/01/11 10:51:09;;;;;;;16.67;8.07;;;;;;;;;;10312792;28;20057;-68
2024/01/11 10:56:12;;;;;;;15.57;9.20;;;;;;;;;;10321414;28;20046;-68
2024/01/11 11:01:13;;;;;;;16.13;9.85;;;;;;;;;;10309409;28;20033;-67
2024/01/11 11:06:15;;;;;;;11.23;8.38;;;;;;;;;;10301627;28;20490;-67
2024/01/11 11:11:18;;;;;;;13.27;8.77;;;;;;;;;;10320423;28;20216;-67
2024/01/11 11:16:19;;;;;;;13.55;8.95;;;;;;;;;;10319896;28;20042;-68
2024/01/11 11:21:21;;;;;;;12.70;8.38;;;;;;;;;;10321036;28;20053;-68
2024/01/11 11:26:21;;;;;;;15.00;8.55;;;;;;;;;;10307197;28;20027;-67
2024/01/11 11:31:42;;;;;;;14.93;8.15;;;;;;;;;;10311042;28;20026;-68
2024/01/11 11:36:45;;;;;;;12.50;8.55;;;;;;;;;;10321389;28;20133;-67
2024/01/11 11:41:49;;;;;;;13.18;8.77;;;;;;;;;;10320631;28;20030;-68
2024/01/11 11:46:50;;;;;;;11.52;8.02;;;;;;;;;;10312539;28;20026;-67
2024/01/11 11:51:51;;;;;;;13.38;8.32;;;;;;;;;;10328210;28;20053;-67
2024/01/11 11:56:52;;;;;;;11.18;7.57;;;;;;;;;;10306055;28;20041;-68
2024/01/11 12:01:53;;;;;;;11.63;8.05;;;;;;;;;;10327945;28;20100;-68
2024/01/11 12:06:54;;;;;;;13.02;8.27;;;;;;;;;;10326695;28;20113;-68
2024/01/11 12:11:54;;;;;;;13.20;7.50;;;;;;;;;;10316372;28;20119;-69
2024/01/11 12:16:58;;;;;;;13.25;7.65;;;;;;;;;;10313203;28;20113;-69
2024/01/11 12:21:59;;;;;;;10.38;7.63;;;;;;;;;;10319746;28;20030;-68
2024/01/11 12:27:01;;;;;;;9.75;7.55;;;;;;;;;;10318353;28;20038;-69
2024/01/11 12:32:02;;;;;;;9.90;7.75;;;;;;;;;;10320093;28;20022;-68
2024/01/11 12:37:05;;;;;;;11.88;8.00;;;;;;;;;;10329306;28;20050;-68
2024/01/11 12:42:06;;;;;;;9.45;7.18;;;;;;;;;;10335904;28;20386;-68
2024/01/11 12:47:08;;;;;;;8.90;6.38;;;;;;;;;;10341803;28;20425;-69
2024/01/11 12:52:19;;;;;;;8.57;6.57;;;;;;;;;;10331396;28;20390;-69
2024/01/11 12:57:20;;;;;;;9.38;6.32;;;;;;;;;;10330815;28;20025;-69
2024/01/11 13:02:20;;;;;;;10.25;6.68;;;;;;;;;;10341536;28;20034;-68
2024/01/11 13:07:22;;;;;;;10.23;6.63;;;;;;;;;;10326660;28;20482;-68
2024/01/11 13:12:23;;;;;;;12.35;6.65;;;;;;;;;;10325385;28;20031;-69
2024/01/11 13:17:24;;;;;;;8.82;6.20;;;;;;;;;;10313393;28;20038;-69
2024/01/11 13:22:25;;;;;;;10.00;6.28;;;;;;;;;;10306940;28;20038;-69
2024/01/11 13:27:25;;;;;;;9.52;6.70;;;;;;;;;;10310109;28;20364;-69
2024/01/11 13:32:26;;;;;;;10.13;6.82;;;;;;;;;;10317332;28;20355;-68
2024/01/11 13:37:27;;;;;;;10.23;5.88;;;;;;;;;;10307768;28;20043;-69
2024/01/11 13:42:28;;;;;;;8.30;6.47;;;;;;;;;;10334650;28;20034;-68
2024/01/11 13:47:29;;;;;;;9.55;6.15;;;;;;;;;;10318875;28;20398;-68
2024/01/11 13:52:29;;;;;;;7.13;5.88;;;;;;;;;;10311233;28;20030;-69
2024/01/11 13:57:30;;;;;;;9.73;6.47;;;;;;;;;;10314238;28;20041;-69
2024/01/11 14:02:31;;;;;;;11.88;5.97;;;;;;;;;;10325569;28;20461;-69
2024/01/11 14:07:32;;;;;;;9.30;6.07;;;;;;;;;;10336738;28;20461;-67
2024/01/11 14:12:33;;;;;;;9.05;6.05;;;;;;;;;;10326663;28;20030;-68
2024/01/11 14:17:33;;;;;;;10.45;6.18;;;;;;;;;;10323624;28;20023;-67
2024/01/11 14:22:34;;;;;;;8.93;5.97;;;;;;;;;;10324262;28;20434;-68
2024/01/11 14:27:35;;;;;;;8.70;5.80;;;;;;;;;;10298029;28;20033;-67
2024/01/11 14:32:35;;;;;;;9.27;5.95;;;;;;;;;;10309975;28;20034;-68
2024/01/11 14:37:38;;;;;;;6.82;5.55;;;;;;;;;;10312231;28;20047;-68
2024/01/11 14:42:40;;;;;;;15.90;5.82;;;;;;;;;;10307755;28;20077;-68
2024/01/11 14:47:40;;;;;;;7.10;5.70;;;;;;;;;;10302935;28;20030;-67
2024/01/11 14:52:42;;;;;;;6.88;5.70;;;;;;;;;;10307819;28;20194;-67
2024/01/11 14:57:43;;;;;;;8.27;5.35;;;;;;;;;;10299448;28;20038;-67
2024/01/11 15:02:45;;;;;;;7.22;5.32;;;;;;;;;;10310124;28;20026;-67
2024/01/11 15:07:46;;;;;;;9.30;6.00;;;;;;;;;;10322437;28;20109;-67
2024/01/11 15:12:46;;;;;;;7.95;5.90;;;;;;;;;;10322866;28;20037;-67
2024/01/11 15:17:47;;;;;;;8.20;5.97;;;;;;;;;;10310520;28;20057;-67
2024/01/11 15:22:47;;;;;;;9.00;5.93;;;;;;;;;;10321283;28;20505;-67
2024/01/11 15:27:48;;;;;;;7.88;5.53;;;;;;;;;;10330572;28;20031;-68
2024/01/11 15:32:48;;;;;;;6.43;5.47;;;;;;;;;;10333287;28;20037;-68
2024/01/11 15:37:49;;;;;;;7.32;5.55;;;;;;;;;;10317289;28;20112;-69
2024/01/11 15:42:50;;;;;;;8.27;5.25;;;;;;;;;;10316200;28;20027;-68
2024/01/11 15:47:51;;;;;;;6.72;4.97;;;;;;;;;;10321574;28;20477;-68
2024/01/11 15:52:51;;;;;;;8.10;5.53;;;;;;;;;;10316953;28;20031;-68
2024/01/11 15:57:54;;;;;;;7.53;5.53;;;;;;;;;;10328812;28;20393;-69
2024/01/11 16:02:55;;;;;;;6.15;5.20;;;;;;;;;;10328718;28;20019;-68
2024/01/11 16:07:56;;;;;;;6.60;5.35;;;;;;;;;;10305352;28;20466;-68
2024/01/11 16:12:57;;;;;;;8.07;5.25;;;;;;;;;;10303050;28;20027;-68
2024/01/11 16:17:57;;;;;;;7.25;5.18;;;;;;;;;;10269710;28;20044;-69
2024/01/11 16:22:58;;;;;;;7.75;5.07;;;;;;;;;;10245616;28;20030;-68
2024/01/11 16:27:59;;;;;;;6.38;4.97;;;;;;;;;;10254422;28;20041;-68
2024/01/11 16:33:00;;;;;;;6.68;5.00;;;;;;;;;;10317833;28;20492;-69
2024/01/11 16:38:03;;;;;;;7.57;5.40;;;;;;;;;;10322946;28;20050;-68
2024/01/11 16:43:03;;;;;;;6.53;5.10;;;;;;;;;;10327391;28;20030;-69
2024/01/11 16:48:09;;;;;;;7.95;4.80;;;;;;;;;;10307706;28;20030;-68
2024/01/11 16:53:10;;;;;;;7.68;4.93;;;;;;;;;;10308487;28;20390;-69
2024/01/11 16:58:11;;;;;;;10.35;5.13;;;;;;;;;;10325688;28;20038;-68
2024/01/11 17:03:12;;;;;;;6.93;5.18;;;;;;;;;;10314832;28;20470;-70
2024/01/11 17:08:12;;;;;;;6.95;4.60;;;;;;;;;;10334601;28;20018;-69
2024/01/11 17:13:13;;;;;;;5.80;4.93;;;;;;;;;;10303859;28;20509;-69
2024/01/11 17:18:14;;;;;;;6.88;4.95;;;;;;;;;;10285485;28;20030;-70
2024/01/11 17:23:16;;;;;;;8.13;4.85;;;;;;;;;;10297003;28;20029;-69
2024/01/11 17:28:18;;;;;;;7.28;4.65;;;;;;;;;;10291032;28;20026;-66
2024/01/11 17:33:18;;;;;;;8.15;4.80;;;;;;;;;;10314203;28;20069;-69
2024/01/11 17:38:19;;;;;;;6.22;4.32;;;;;;;;;;10311973;28;20074;-66
2024/01/11 17:43:20;;;;;;;8.20;4.78;;;;;;;;;;10224960;28;20030;-67
2024/01/11 17:48:20;;;;;;;6.95;4.90;;;;;;;;;;10304203;28;20065;-68
2024/01/11 17:53:21;;;;;;;9.90;5.15;;;;;;;;;;10320598;28;20049;-67
2024/01/11 17:58:22;;;;;;;9.10;4.85;;;;;;;;;;10316307;28;20038;-66
2024/01/11 18:03:23;;;;;;;12.63;4.88;;;;;;;;;;10312521;28;20042;-68
2024/01/11 18:08:23;;;;;;;11.63;5.05;;;;;;;;;;10317486;28;20425;-67
2024/01/11 18:13:25;;;;;;;7.38;4.53;;;;;;;;;;10311985;28;20454;-66
2024/01/11 18:18:26;;;;;;;8.68;4.88;;;;;;;;;;10317158;28;20026;-66
2024/01/11 18:23:27;;;;;;;9.93;5.10;;;;;;;;;;10295204;28;20554;-65
2024/01/11 18:28:31;;;;;;;12.27;5.90;;;;;;;;;;10335327;28;20486;-67
2024/01/11 18:33:31;;;;;;;11.43;4.97;;;;;;;;;;10322286;28;20113;-68
2024/01/11 18:38:33;;;;;;;7.07;4.78;;;;;;;;;;10276770;28;20439;-66
2024/01/11 18:43:34;;;;;;;11.77;5.45;;;;;;;;;;10325877;28;20046;-65
2024/01/11 18:48:38;;;;;;;8.90;5.55;;;;;;;;;;10314652;28;20046;-66
2024/01/11 18:53:40;;;;;;;7.93;5.47;;;;;;;;;;10300407;28;20029;-65
2024/01/11 18:58:41;;;;;;;11.98;5.97;;;;;;;;;;10271622;28;20045;-65
2024/01/11 19:03:42;;;;;;;9.85;5.72;;;;;;;;;;10302178;28;20033;-66
2024/01/11 19:08:42;;;;;;;9.70;5.75;;;;;;;;;;10313612;28;20045;-66
2024/01/11 19:13:43;;;;;;;8.10;5.70;;;;;;;;;;10323683;28;20038;-67
2024/01/11 19:18:43;;;;;;;8.90;5.50;;;;;;;;;;10320145;28;20386;-65
2024/01/11 19:23:44;;;;;;;9.60;5.18;;;;;;;;;;10310408;28;20022;-66
2024/01/11 19:28:45;;;;;;;7.10;5.70;;;;;;;;;;10312053;28;20027;-66
2024/01/11 19:33:45;;;;;;;14.32;5.38;;;;;;;;;;10289539;28;20031;-65
2024/01/11 19:38:46;;;;;;;7.70;5.13;;;;;;;;;;10288751;28;20051;-64
2024/01/11 19:43:46;;;;;;;11.85;5.18;;;;;;;;;;10292414;28;20088;-66
2024/01/11 19:48:48;;;;;;;7.32;5.07;;;;;;;;;;10276944;28;20057;-67
2024/01/11 19:53:49;;;;;;;15.60;5.43;;;;;;;;;;10238907;28;20157;-67
2024/01/11 19:58:51;;;;;;;16.08;6.38;;;;;;;;;;10236810;28;20041;-69
2024/01/11 20:03:51;;;;;;;29.83;8.77;;;;;;;;;;10235850;28;20029;-68
2024/01/11 20:08:52;;;;;;;25.35;8.55;;;;;;;;;;10241158;28;20476;-67
2024/01/11 20:13:52;;;;;;;15.32;7.25;;;;;;;;;;10248360;28;20173;-67
2024/01/11 20:18:53;;;;;;;16.17;8.30;;;;;;;;;;10254103;28;20486;-67
2024/01/11 20:23:54;;;;;;;15.50;8.43;;;;;;;;;;10325607;28;20034;-68
2024/01/11 20:28:54;;;;;;;14.30;8.52;;;;;;;;;;10328678;28;20102;-68
2024/01/11 20:33:56;;;;;;;18.42;8.73;;;;;;;;;;10311747;28;20174;-67
2024/01/11 20:38:56;;;;;;;17.58;8.60;;;;;;;;;;10327769;28;20058;-67
2024/01/11 20:43:57;;;;;;;17.90;8.27;;;;;;;;;;10329295;28;20390;-67
2024/01/11 20:48:57;;;;;;;17.30;9.10;;;;;;;;;;10329523;28;20169;-68
2024/01/11 20:54:00;;;;;;;16.13;9.23;;;;;;;;;;10328182;28;20045;-68
2024/01/11 20:59:01;;;;;;;18.80;9.45;;;;;;;;;;10328817;28;20114;-68
2024/01/11 21:04:01;;;;;;;17.30;9.68;;;;;;;;;;10327841;28;20026;-68
2024/01/11 21:09:02;;;;;;;16.20;9.15;;;;;;;;;;10327690;28;20477;-67
2024/01/11 21:14:02;;;;;;;14.05;9.05;;;;;;;;;;10319829;28;20570;-67
2024/01/11 21:19:05;;;;;;;14.50;8.70;;;;;;;;;;10323932;28;20031;-67
2024/01/11 21:24:05;;;;;;;15.93;10.73;;;;;;;;;;10327516;28;20030;-67
2024/01/11 21:29:06;;;;;;;15.07;9.55;;;;;;;;;;10325303;28;20386;-67
2024/01/11 21:34:06;;;;;;;19.13;9.45;;;;;;;;;;10324679;28;20057;-67
2024/01/11 21:39:07;;;;;;;25.33;10.73;;;;;;;;;;10326900;28;20054;-67
2024/01/11 21:44:08;;;;;;;27.10;9.60;;;;;;;;;;10325636;28;20058;-67
2024/01/11 21:49:09;;;;;;;26.20;9.70;;;;;;;;;;10326425;28;20394;-67
2024/01/11 21:54:10;;;;;;;20.95;10.15;;;;;;;;;;10326803;28;20061;-66
2024/01/11 21:59:11;;;;;;;17.02;10.27;;;;;;;;;;10326432;28;20068;-67
2024/01/11 22:04:12;;;;;;;16.25;10.52;;;;;;;;;;10326741;28;20033;-67
2024/01/11 22:09:12;;;;;;;20.90;11.13;;;;;;;;;;10327360;28;20034;-66
2024/01/11 22:14:13;;;;;;;17.88;10.32;;;;;;;;;;10326269;28;20536;-67
2024/01/11 22:19:14;;;;;;;22.40;11.43;;;;;;;;;;10315956;28;20030;-67
2024/01/11 22:24:16;;;;;;;17.33;11.15;;;;;;;;;;10325526;28;20046;-67
2024/01/11 22:29:16;;;;;;;20.15;11.00;;;;;;;;;;10325426;28;20030;-67
2024/01/11 22:34:17;;;;;;;22.20;11.48;;;;;;;;;;10323807;28;20026;-67
2024/01/11 22:39:17;;;;;;;23.80;11.90;;;;;;;;;;10290059;28;20277;-67
2024/01/11 22:44:18;;;;;;;19.00;11.82;;;;;;;;;;10246344;28;20485;-67
2024/01/11 22:49:19;;;;;;;23.67;12.35;;;;;;;;;;10243998;28;20021;-67
2024/01/11 22:54:19;;;;;;;18.05;11.65;;;;;;;;;;10244935;28;20029;-67
2024/01/11 22:59:20;;;;;;;21.95;13.23;;;;;;;;;;10282948;28;20030;-67
2024/01/11 23:04:21;;;;;;;19.17;12.68;;;;;;;;;;10281061;28;20030;-67
2024/01/11 23:09:21;;;;;;;22.02;12.52;;;;;;;;;;10288175;28;20039;-67
2024/01/11 23:14:22;;;;;;;19.73;12.77;;;;;;;;;;10330732;28;20045;-66
2024/01/11 23:19:23;;;;;;;19.15;13.38;;;;;;;;;;10292789;28;20046;-65
2024/01/11 23:24:23;;;;;;;22.20;13.15;;;;;;;;;;10318748;28;20570;-67
2024/01/11 23:29:24;;;;;;;23.52;12.23;;;;;;;;;;10311281;28;20104;-67
2024/01/11 23:34:25;;;;;;;24.27;13.30;;;;;;;;;;10311037;28;20017;-68
2024/01/11 23:39:25;;;;;;;24.05;14.20;;;;;;;;;;10312306;28;20143;-66
2024/01/11 23:44:26;;;;;;;26.02;13.60;;;;;;;;;;10318767;28;20042;-67
2024/01/11 23:49:26;;;;;;;18.55;12.82;;;;;;;;;;10313830;28;20159;-64
2024/01/11 23:54:27;;;;;;;26.27;14.40;;;;;;;;;;10334843;28;20026;-66
2024/01/11 23:59:27;;;;;;;19.90;13.32;;;;;;;;;;10331475;28;20018;-63
